createdAt,value
2023-02-18T00:01:25.131Z,7.71
2023-02-18T00:04:16.184Z,7.95
2023-02-18T00:07:07.490Z,8.12
2023-02-18T00:09:57.171Z,8.28
2023-02-18T00:12:48.442Z,8.40
2023-02-18T00:15:40.856Z,8.49
2023-02-18T00:18:32.049Z,8.58
2023-02-18T00:21:23.473Z,8.66
2023-02-18T00:24:08.173Z,8.72
2023-02-18T00:26:53.519Z,8.79
2023-02-18T00:29:35.659Z,8.87
2023-02-18T00:32:26.696Z,8.95
2023-02-18T00:35:18.424Z,9.01
2023-02-18T00:38:09.471Z,9.03
2023-02-18T00:41:00.556Z,9.06
2023-02-18T00:43:51.971Z,9.07
2023-02-18T00:46:43.315Z,9.05
2023-02-18T00:49:36.846Z,9.06
2023-02-18T00:52:28.184Z,9.08
2023-02-18T00:55:19.248Z,9.07
2023-02-18T00:58:10.494Z,9.08
2023-02-18T01:01:01.502Z,9.11
2023-02-18T01:03:45.423Z,9.09
2023-02-18T01:06:36.717Z,9.09
2023-02-18T01:09:27.900Z,9.09
2023-02-18T01:12:19.003Z,9.07
2023-02-18T01:15:11.072Z,9.06
2023-02-18T01:17:54.869Z,9.06
2023-02-18T01:20:46.170Z,9.08
2023-02-18T01:23:37.436Z,9.12
2023-02-18T01:26:21.421Z,9.19
2023-02-18T01:29:12.557Z,9.26
2023-02-18T01:32:04.209Z,9.33
2023-02-18T01:34:55.673Z,9.37
2023-02-18T01:37:46.840Z,9.37
2023-02-18T01:40:38.593Z,9.33
2023-02-18T01:43:29.644Z,9.27
2023-02-18T01:46:23.355Z,9.20
2023-02-18T01:49:16.987Z,9.17
2023-02-18T01:52:10.838Z,9.18
2023-02-18T01:55:03.438Z,9.20
2023-02-18T01:57:56.369Z,9.25
2023-02-18T02:00:47.502Z,9.27
2023-02-18T02:03:38.885Z,9.29
2023-02-18T02:06:29.916Z,9.34
2023-02-18T02:09:22.978Z,9.36
2023-02-18T02:12:30.880Z,9.38
2023-02-18T02:15:30.052Z,9.39
2023-02-18T02:18:28.764Z,9.42
2023-02-18T02:21:47.442Z,9.42
2023-02-18T02:24:57.545Z,9.44
2023-02-18T02:28:08.417Z,9.39
2023-02-18T02:31:12.369Z,9.33
2023-02-18T02:34:31.060Z,9.31
2023-02-18T02:37:26.929Z,9.27
2023-02-18T02:40:22.103Z,9.23
2023-02-18T02:43:19.501Z,9.21
2023-02-18T02:46:04.191Z,9.17
2023-02-18T02:49:01.141Z,9.12
2023-02-18T02:51:55.970Z,9.10
2023-02-18T02:54:48.095Z,9.07
2023-02-18T02:57:47.304Z,9.03
2023-02-18T03:00:57.541Z,8.99
2023-02-18T03:04:01.034Z,8.92
2023-02-18T03:07:07.265Z,8.83
2023-02-18T03:10:09.217Z,8.76
2023-02-18T03:12:59.179Z,8.71
2023-02-18T03:15:56.498Z,8.69
2023-02-18T03:18:50.074Z,8.67
2023-02-18T03:21:38.326Z,8.64
2023-02-18T03:24:31.876Z,8.62
2023-02-18T03:27:25.321Z,8.61
2023-02-18T03:30:13.585Z,8.58
2023-02-18T03:33:07.892Z,8.52
2023-02-18T03:35:59.095Z,8.44
2023-02-18T03:38:39.371Z,8.38
2023-02-18T03:41:30.920Z,8.29
2023-02-18T03:44:22.135Z,8.24
2023-02-18T03:47:13.726Z,8.23
2023-02-18T03:50:04.827Z,8.18
2023-02-18T03:52:56.586Z,8.16
2023-02-18T03:55:47.768Z,8.14
2023-02-18T03:58:31.617Z,8.08
2023-02-18T04:01:22.645Z,8.03
2023-02-18T04:04:13.885Z,7.98
2023-02-18T04:07:05.819Z,7.91
2023-02-18T04:09:56.867Z,7.85
2023-02-18T04:12:37.840Z,7.81
2023-02-18T04:15:28.905Z,7.78
2023-02-18T04:18:20.783Z,7.73
2023-02-18T04:21:04.693Z,7.68
2023-02-18T04:23:55.781Z,7.65
2023-02-18T04:26:46.813Z,7.63
2023-02-18T04:29:37.818Z,7.60
2023-02-18T04:32:28.876Z,7.58
2023-02-18T04:35:20.156Z,7.54
2023-02-18T04:38:12.116Z,7.51
2023-02-18T04:41:03.155Z,7.46
2023-02-18T04:43:54.367Z,7.43
2023-02-18T04:46:45.353Z,7.42
2023-02-18T04:49:22.033Z,7.40
2023-02-18T04:52:14.728Z,7.37
2023-02-18T04:54:53.692Z,7.37
2023-02-18T04:57:39.216Z,7.34
2023-02-18T05:00:30.347Z,7.29
2023-02-18T05:03:21.353Z,7.22
2023-02-18T05:06:12.338Z,7.17
2023-02-18T05:09:03.502Z,7.12
2023-02-18T05:11:54.967Z,7.08
2023-02-18T05:14:39.823Z,7.05
2023-02-18T05:17:30.725Z,7.02
2023-02-18T05:20:21.990Z,6.97
2023-02-18T05:23:13.639Z,6.96
2023-02-18T05:26:04.801Z,6.95
2023-02-18T05:28:57.759Z,6.96
2023-02-18T05:31:49.110Z,6.98
2023-02-18T05:34:40.266Z,6.94
2023-02-18T05:37:32.843Z,6.91
2023-02-18T05:40:23.997Z,6.87
2023-02-18T05:43:07.876Z,6.84
2023-02-18T05:45:58.956Z,6.83
2023-02-18T05:48:50.392Z,6.84
2023-02-18T05:51:41.700Z,6.81
2023-02-18T05:54:32.967Z,6.79
2023-02-18T05:57:14.781Z,6.75
2023-02-18T06:00:00.159Z,6.76
2023-02-18T06:02:52.232Z,6.79
2023-02-18T06:05:36.419Z,6.83
2023-02-18T06:08:27.641Z,6.81
2023-02-18T06:11:19.009Z,6.77
2023-02-18T06:14:03.796Z,6.74
2023-02-18T06:16:54.310Z,6.73
2023-02-18T06:19:45.750Z,6.73
2023-02-18T06:22:37.020Z,6.73
2023-02-18T06:25:28.021Z,6.72
2023-02-18T06:28:19.989Z,6.72
2023-02-18T06:30:53.405Z,6.76
2023-02-18T06:33:44.855Z,6.78
2023-02-18T06:36:36.486Z,6.82
2023-02-18T06:39:27.640Z,6.86
2023-02-18T06:42:11.942Z,6.92
2023-02-18T06:44:43.111Z,7.00
2023-02-18T06:47:25.252Z,7.10
2023-02-18T06:50:04.154Z,7.20
2023-02-18T06:52:36.327Z,7.31
2023-02-18T06:55:13.809Z,7.41
2023-02-18T06:58:05.799Z,7.51
2023-02-18T07:00:42.558Z,7.59
2023-02-18T07:03:16.298Z,7.67
2023-02-18T07:06:08.562Z,7.76
2023-02-18T07:08:39.619Z,7.82
2023-02-18T07:11:19.751Z,7.86
2023-02-18T07:13:53.690Z,7.91
2023-02-18T07:16:45.311Z,7.96
2023-02-18T07:19:36.593Z,8.02
2023-02-18T07:22:10.623Z,8.08
2023-02-18T07:25:03.418Z,8.13
2023-02-18T07:27:44.934Z,8.15
2023-02-18T07:30:16.510Z,8.11
2023-02-18T07:33:09.224Z,8.10
2023-02-18T07:36:00.968Z,8.08
2023-02-18T07:38:40.846Z,8.06
2023-02-18T07:41:33.152Z,8.06
2023-02-18T07:44:04.114Z,8.05
2023-02-18T07:46:48.386Z,8.09
2023-02-18T07:49:21.613Z,8.08
2023-02-18T07:52:04.467Z,8.05
2023-02-18T07:54:38.897Z,8.08
2023-02-18T07:57:21.633Z,8.09
2023-02-18T08:00:13.973Z,8.09
2023-02-18T08:02:57.674Z,8.12
2023-02-18T08:05:29.506Z,8.16
2023-02-18T08:08:14.152Z,8.15
2023-02-18T08:10:45.512Z,8.14
2023-02-18T08:13:26.583Z,8.14
2023-02-18T08:16:16.897Z,8.17
2023-02-18T08:18:50.769Z,8.15
2023-02-18T08:21:25.994Z,8.10
2023-02-18T08:24:17.320Z,7.97
2023-02-18T08:27:00.418Z,7.90
2023-02-18T08:29:32.478Z,7.91
2023-02-18T08:32:09.003Z,7.96
2023-02-18T08:34:54.134Z,8.01
2023-02-18T08:37:52.924Z,7.99
2023-02-18T08:40:36.134Z,7.99
2023-02-18T08:43:17.839Z,8.06
2023-02-18T08:46:00.316Z,8.09
2023-02-18T08:48:51.107Z,8.13
2023-02-18T08:51:35.238Z,8.18
2023-02-18T08:54:09.564Z,8.22
2023-02-18T08:57:00.930Z,8.25
2023-02-18T08:59:43.801Z,8.27
2023-02-18T09:02:17.124Z,8.30
2023-02-18T09:05:00.978Z,8.32
2023-02-18T09:07:52.346Z,8.36
2023-02-18T09:10:46.188Z,8.39
2023-02-18T09:13:37.725Z,8.42
2023-02-18T09:16:30.029Z,8.46
2023-02-18T09:19:14.969Z,8.48
2023-02-18T09:22:00.664Z,8.55
2023-02-18T09:24:52.155Z,8.64
2023-02-18T09:27:43.406Z,8.63
2023-02-18T09:30:34.759Z,8.61
2023-02-18T09:33:27.413Z,8.66
2023-02-18T09:36:18.979Z,8.67
2023-02-18T09:39:13.105Z,8.71
2023-02-18T09:41:59.161Z,8.73
2023-02-18T09:44:45.740Z,8.75
2023-02-18T09:47:39.333Z,8.74
2023-02-18T09:50:31.776Z,8.73
2023-02-18T09:53:22.959Z,8.75
2023-02-18T09:56:15.313Z,8.80
2023-02-18T09:59:01.221Z,8.77
2023-02-18T10:01:54.768Z,8.70
2023-02-18T10:04:42.562Z,8.65
2023-02-18T10:07:28.515Z,8.55
2023-02-18T10:10:22.729Z,8.55
2023-02-18T10:12:56.931Z,8.62
2023-02-18T10:15:31.667Z,8.66
2023-02-18T10:18:03.426Z,8.75
2023-02-18T10:20:37.017Z,8.82
2023-02-18T10:23:08.221Z,8.96
2023-02-18T10:25:50.359Z,9.07
2023-02-18T10:28:33.088Z,9.23
2023-02-18T10:31:17.150Z,9.49
2023-02-18T10:34:06.255Z,9.70
2023-02-18T10:36:44.470Z,9.86
2023-02-18T10:39:39.589Z,9.98
2023-02-18T10:42:26.272Z,10.10
2023-02-18T10:45:23.782Z,10.18
2023-02-18T10:48:23.843Z,10.21
2023-02-18T10:51:18.787Z,10.21
2023-02-18T10:54:08.659Z,10.19
2023-02-18T10:57:06.035Z,10.17
2023-02-18T10:59:55.465Z,10.18
2023-02-18T11:02:47.731Z,10.23
2023-02-18T11:05:40.567Z,10.17
2023-02-18T11:08:25.236Z,10.10
2023-02-18T11:11:18.875Z,9.97
2023-02-18T11:13:56.136Z,9.93
2023-02-18T11:16:53.816Z,9.87
2023-02-18T11:19:38.807Z,9.76
2023-02-18T11:22:33.173Z,9.71
2023-02-18T11:25:24.379Z,9.69
2023-02-18T11:28:24.871Z,9.66
2023-02-18T11:31:09.786Z,9.62
2023-02-18T11:34:03.355Z,9.70
2023-02-18T11:36:53.923Z,9.78
2023-02-18T11:39:36.467Z,9.77
2023-02-18T11:42:14.438Z,9.74
2023-02-18T11:45:05.692Z,9.59
2023-02-18T11:48:02.326Z,9.58
2023-02-18T11:50:40.426Z,9.57
2023-02-18T11:53:33.194Z,9.54
2023-02-18T11:56:20.603Z,9.49
2023-02-18T11:59:14.820Z,9.41
2023-02-18T12:01:47.744Z,9.43
2023-02-18T12:05:02.394Z,9.48
2023-02-18T12:07:48.991Z,9.57
2023-02-18T12:10:42.466Z,9.62
2023-02-18T12:13:35.168Z,9.71
2023-02-18T12:16:32.747Z,9.82
2023-02-18T12:19:39.480Z,9.91
2023-02-18T12:22:36.096Z,9.96
2023-02-18T12:25:34.589Z,9.98
2023-02-18T12:28:31.287Z,9.98
2023-02-18T12:31:34.883Z,9.94
2023-02-18T12:34:38.280Z,9.91
2023-02-18T12:37:40.916Z,9.87
2023-02-18T12:40:41.699Z,9.77
2023-02-18T12:43:37.761Z,9.76
2023-02-18T12:46:35.106Z,9.77
2023-02-18T12:49:27.427Z,9.75
2023-02-18T12:52:25.805Z,9.76
2023-02-18T12:55:36.218Z,9.74
2023-02-18T12:58:32.934Z,9.71
2023-02-18T13:01:32.127Z,9.75
2023-02-18T13:04:36.758Z,9.76
2023-02-18T13:07:41.398Z,9.82
2023-02-18T13:10:41.478Z,9.86
2023-02-18T13:13:34.850Z,9.83
2023-02-18T13:16:24.897Z,9.80
2023-02-18T13:19:20.672Z,9.69
2023-02-18T13:22:15.632Z,9.62
2023-02-18T13:24:59.777Z,9.53
2023-02-18T13:27:38.474Z,9.48
2023-02-18T13:30:32.475Z,9.43
2023-02-18T13:33:19.349Z,9.29
2023-02-18T13:36:14.624Z,9.16
2023-02-18T13:39:07.480Z,9.04
2023-02-18T13:41:52.619Z,8.92
2023-02-18T13:44:54.673Z,8.82
2023-02-18T13:47:42.326Z,8.76
2023-02-18T13:50:40.498Z,8.71
2023-02-18T13:53:32.180Z,8.59
2023-02-18T13:56:24.500Z,8.52
2023-02-18T13:59:12.997Z,8.48
2023-02-18T14:02:17.418Z,8.41
2023-02-18T14:05:16.087Z,8.34
2023-02-18T14:08:12.951Z,8.33
2023-02-18T14:11:21.107Z,8.41
2023-02-18T14:14:17.175Z,8.54
2023-02-18T14:17:30.910Z,8.62
2023-02-18T14:20:29.794Z,8.64
2023-02-18T14:23:14.572Z,8.60
2023-02-18T14:26:07.921Z,8.52
2023-02-18T14:28:56.001Z,8.38
2023-02-18T14:31:49.774Z,8.22
2023-02-18T14:35:01.615Z,8.11
2023-02-18T14:37:58.961Z,8.04
2023-02-18T14:41:09.668Z,8.01
2023-02-18T14:44:16.610Z,7.96
2023-02-18T14:47:08.246Z,7.90
2023-02-18T14:50:01.306Z,7.83
2023-02-18T14:52:54.641Z,7.79
2023-02-18T14:55:40.917Z,7.74
2023-02-18T14:58:28.337Z,7.69
2023-02-18T15:01:18.577Z,7.59
2023-02-18T15:04:00.873Z,7.53
2023-02-18T15:06:36.733Z,7.47
2023-02-18T15:09:22.699Z,7.39
2023-02-18T15:12:17.901Z,7.35
2023-02-18T15:15:09.543Z,7.30
2023-02-18T15:18:00.627Z,7.25
2023-02-18T15:20:46.498Z,7.24
2023-02-18T15:23:38.896Z,7.21
2023-02-18T15:26:21.652Z,7.20
2023-02-18T15:29:17.037Z,7.17
2023-02-18T15:32:16.336Z,7.15
2023-02-18T15:35:16.137Z,7.14
2023-02-18T15:38:07.200Z,7.13
2023-02-18T15:40:58.361Z,7.13
2023-02-18T15:43:56.999Z,7.13
2023-02-18T15:46:48.400Z,7.13
2023-02-18T15:49:40.477Z,7.13
2023-02-18T15:52:33.514Z,7.14
2023-02-18T15:55:28.597Z,7.14
2023-02-18T15:58:20.949Z,7.15
2023-02-18T16:01:07.026Z,7.16
2023-02-18T16:03:58.201Z,7.18
2023-02-18T16:06:42.403Z,7.18
2023-02-18T16:09:34.045Z,7.19
2023-02-18T16:12:30.040Z,7.20
2023-02-18T16:15:24.292Z,7.19
2023-02-18T16:18:23.595Z,7.17
2023-02-18T16:21:26.116Z,7.14
2023-02-18T16:24:25.926Z,7.11
2023-02-18T16:27:17.948Z,7.08
2023-02-18T16:30:17.108Z,7.05
2023-02-18T16:33:08.227Z,7.03
2023-02-18T16:35:59.517Z,7.01
2023-02-18T16:38:43.837Z,6.99
2023-02-18T16:41:34.984Z,6.97
2023-02-18T16:44:26.311Z,6.92
2023-02-18T16:47:18.329Z,6.86
2023-02-18T16:50:15.608Z,6.80
2023-02-18T16:52:59.497Z,6.72
2023-02-18T16:55:52.006Z,6.66
2023-02-18T16:58:44.781Z,6.62
2023-02-18T17:01:38.253Z,6.58
2023-02-18T17:04:29.812Z,6.58
2023-02-18T17:07:21.490Z,6.58
2023-02-18T17:10:15.567Z,6.59
2023-02-18T17:13:06.297Z,6.57
2023-02-18T17:15:48.849Z,6.56
2023-02-18T17:18:39.975Z,6.55
2023-02-18T17:21:31.120Z,6.53
2023-02-18T17:24:17.943Z,6.53
2023-02-18T17:26:52.393Z,6.53
2023-02-18T17:29:36.232Z,6.53
2023-02-18T17:32:27.461Z,6.54
2023-02-18T17:35:19.996Z,6.53
2023-02-18T17:39:02.529Z,6.51
2023-02-18T17:41:25.211Z,6.47
2023-02-18T17:44:10.487Z,6.45
2023-02-18T17:47:01.553Z,6.43
2023-02-18T17:49:45.154Z,6.43
2023-02-18T17:52:36.678Z,6.42
2023-02-18T17:55:21.695Z,6.42
2023-02-18T17:58:13.161Z,6.43
2023-02-18T18:01:04.376Z,6.44
2023-02-18T18:03:55.553Z,6.44
2023-02-18T18:06:47.125Z,6.45
2023-02-18T18:09:38.180Z,6.46
2023-02-18T18:12:29.965Z,6.47
2023-02-18T18:15:29.327Z,6.45
2023-02-18T18:18:20.399Z,6.37
2023-02-18T18:21:16.298Z,6.37
2023-02-18T18:24:07.649Z,6.37
2023-02-18T18:26:48.905Z,6.36
2023-02-18T18:29:41.511Z,6.34
2023-02-18T18:32:33.316Z,6.37
2023-02-18T18:35:21.371Z,6.40
2023-02-18T18:38:12.669Z,6.47
2023-02-18T18:41:03.765Z,6.61
2023-02-18T18:43:48.241Z,6.81
2023-02-18T18:46:39.404Z,6.97
2023-02-18T18:49:30.457Z,7.11
2023-02-18T18:52:22.712Z,7.26
2023-02-18T18:55:20.636Z,7.42
2023-02-18T18:58:11.810Z,7.52
2023-02-18T19:01:03.740Z,7.58
2023-02-18T19:03:54.146Z,7.60
2023-02-18T19:06:35.315Z,7.60
2023-02-18T19:09:26.461Z,7.59
2023-02-18T19:12:07.709Z,7.57
2023-02-18T19:14:39.032Z,7.54
2023-02-18T19:17:22.948Z,7.52
2023-02-18T19:20:15.670Z,7.49
2023-02-18T19:23:06.885Z,7.47
2023-02-18T19:25:58.371Z,7.44
2023-02-18T19:28:49.149Z,7.43
2023-02-18T19:31:44.976Z,7.41
2023-02-18T19:34:36.431Z,7.39
2023-02-18T19:37:17.506Z,7.38
2023-02-18T19:40:10.107Z,7.38
2023-02-18T19:42:51.080Z,7.38
2023-02-18T19:45:36.670Z,7.40
2023-02-18T19:48:27.803Z,7.42
2023-02-18T19:51:03.257Z,7.44
2023-02-18T19:53:55.089Z,7.49
2023-02-18T19:56:46.204Z,7.54
2023-02-18T19:59:38.314Z,7.58
2023-02-18T20:02:22.832Z,7.61
2023-02-18T20:05:14.957Z,7.64
2023-02-18T20:08:00.153Z,7.70
2023-02-18T20:10:43.964Z,7.74
2023-02-18T20:13:35.339Z,7.79
2023-02-18T20:16:26.340Z,7.83
2023-02-18T20:19:18.725Z,7.88
2023-02-18T20:22:10.809Z,7.92
2023-02-18T20:24:54.476Z,7.94
2023-02-18T20:27:59.806Z,7.98
2023-02-18T20:30:51.187Z,8.01
2023-02-18T20:33:42.765Z,8.04
2023-02-18T20:36:33.874Z,8.05
2023-02-18T20:39:25.062Z,8.06
2023-02-18T20:42:17.139Z,8.09
2023-02-18T20:45:10.477Z,8.04
2023-02-18T20:48:01.514Z,7.78
2023-02-18T20:50:45.205Z,7.50
2023-02-18T20:53:30.787Z,7.30
2023-02-18T20:56:22.457Z,7.11
2023-02-18T20:59:13.149Z,6.97
2023-02-18T21:02:06.684Z,6.87
2023-02-18T21:04:57.807Z,6.79
2023-02-18T21:07:48.839Z,6.72
2023-02-18T21:10:32.848Z,6.68
2023-02-18T21:13:27.479Z,6.64
2023-02-18T21:16:19.300Z,6.60
2023-02-18T21:19:13.087Z,6.55
2023-02-18T21:22:04.337Z,6.52
2023-02-18T21:24:55.400Z,6.49
2023-02-18T21:27:46.430Z,6.48
2023-02-18T21:30:37.997Z,6.47
2023-02-18T21:33:29.960Z,6.45
2023-02-18T21:36:21.522Z,6.44
2023-02-18T21:39:15.418Z,6.43
2023-02-18T21:42:06.908Z,6.42
2023-02-18T21:44:59.802Z,6.40
2023-02-18T21:47:44.925Z,6.38
2023-02-18T21:50:36.220Z,6.34
2023-02-18T21:53:27.247Z,6.31
2023-02-18T21:56:18.396Z,6.26
2023-02-18T21:59:09.573Z,6.19
2023-02-18T22:02:01.221Z,6.14
2023-02-18T22:04:52.930Z,6.10
2023-02-18T22:07:43.953Z,6.07
2023-02-18T22:10:35.265Z,6.03
2023-02-18T22:13:26.314Z,6.01
2023-02-18T22:16:17.434Z,5.98
2023-02-18T22:19:08.924Z,5.95
2023-02-18T22:22:01.036Z,5.92
2023-02-18T22:24:52.921Z,5.89
2023-02-18T22:27:44.026Z,5.88
2023-02-18T22:30:35.286Z,5.89
2023-02-18T22:33:26.375Z,5.89
2023-02-18T22:36:17.439Z,5.91
2023-02-18T22:39:08.819Z,5.91
2023-02-18T22:41:58.991Z,5.92
2023-02-18T22:44:50.005Z,5.91
2023-02-18T22:47:41.350Z,5.88
2023-02-18T22:50:32.460Z,5.87
2023-02-18T22:53:16.272Z,5.86
2023-02-18T22:56:09.302Z,5.86
2023-02-18T22:59:00.587Z,5.87
2023-02-18T23:01:53.067Z,5.87
2023-02-18T23:04:42.808Z,5.88
2023-02-18T23:07:26.699Z,5.89
2023-02-18T23:10:19.233Z,5.90
2023-02-18T23:13:03.473Z,5.90
2023-02-18T23:15:58.506Z,5.90
2023-02-18T23:18:50.256Z,5.90
2023-02-18T23:21:41.218Z,5.89
2023-02-18T23:24:36.209Z,5.89
2023-02-18T23:27:19.979Z,5.89
2023-02-18T23:30:12.209Z,5.90
2023-02-18T23:33:03.370Z,5.90
2023-02-18T23:35:54.480Z,5.90
2023-02-18T23:38:48.018Z,5.89
2023-02-18T23:41:39.324Z,5.87
2023-02-18T23:44:31.302Z,5.87
2023-02-18T23:47:22.525Z,5.86
2023-02-18T23:50:16.388Z,5.83
2023-02-18T23:52:58.403Z,5.81
2023-02-18T23:55:49.460Z,5.80
2023-02-18T23:58:41.189Z,5.77
